createdAt,value
2023-04-06T00:02:19.609Z,16.27
2023-04-06T00:04:46.139Z,16.13
2023-04-06T00:07:12.556Z,18.02
2023-04-06T00:09:38.909Z,15.00
2023-04-06T00:12:05.733Z,22.38
2023-04-06T00:14:32.165Z,26.48
2023-04-06T00:16:58.632Z,27.50
2023-04-06T00:19:25.132Z,25.20
2023-04-06T00:21:51.654Z,25.30
2023-04-06T00:24:18.115Z,23.85
2023-04-06T00:26:44.506Z,21.42
2023-04-06T00:29:11.242Z,18.83
2023-04-06T00:31:37.749Z,15.40
2023-04-06T00:34:04.444Z,19.02
2023-04-06T00:36:30.924Z,18.05
2023-04-06T00:38:57.319Z,16.63
2023-04-06T00:41:23.730Z,16.48
2023-04-06T00:43:50.154Z,19.35
2023-04-06T00:46:16.581Z,17.90
2023-04-06T00:48:42.988Z,20.20
2023-04-06T00:51:09.503Z,22.45
2023-04-06T00:53:36.116Z,25.65
2023-04-06T00:56:02.493Z,24.05
2023-04-06T00:58:29.071Z,29.70
2023-04-06T01:00:55.705Z,29.52
2023-04-06T01:03:22.128Z,32.50
2023-04-06T01:05:48.617Z,29.75
2023-04-06T01:08:15.524Z,30.40
2023-04-06T01:10:42.235Z,26.05
2023-04-06T01:13:09.386Z,25.30
2023-04-06T01:15:36.393Z,30.10
2023-04-06T01:18:03.310Z,25.88
2023-04-06T01:20:29.704Z,30.77
2023-04-06T01:22:56.352Z,29.15
2023-04-06T01:25:22.738Z,32.30
2023-04-06T01:27:49.127Z,25.63
2023-04-06T01:30:15.596Z,25.45
2023-04-06T01:32:42.061Z,19.73
2023-04-06T01:35:08.922Z,26.73
2023-04-06T01:37:35.318Z,24.35
2023-04-06T01:40:01.938Z,26.55
2023-04-06T01:42:28.979Z,31.02
2023-04-06T01:44:55.375Z,25.92
2023-04-06T01:47:21.849Z,26.05
2023-04-06T01:49:48.356Z,25.67
2023-04-06T01:52:15.033Z,24.80
2023-04-06T01:54:41.664Z,27.20
2023-04-06T01:57:08.100Z,33.40
2023-04-06T01:59:34.533Z,30.92
2023-04-06T02:02:00.995Z,27.95
2023-04-06T02:04:27.380Z,24.33
2023-04-06T02:06:53.759Z,29.67
2023-04-06T02:09:20.429Z,26.25
2023-04-06T02:11:46.798Z,28.98
2023-04-06T02:14:13.195Z,24.25
2023-04-06T02:16:39.618Z,23.33
2023-04-06T02:19:06.283Z,28.38
2023-04-06T02:21:32.860Z,22.65
2023-04-06T02:23:59.246Z,21.17
2023-04-06T02:26:25.897Z,23.25
2023-04-06T02:28:52.369Z,18.67
2023-04-06T02:31:18.798Z,20.77
2023-04-06T02:33:45.270Z,17.50
2023-04-06T02:36:11.658Z,20.30
2023-04-06T02:38:38.074Z,30.30
2023-04-06T02:41:04.513Z,26.67
2023-04-06T02:43:31.218Z,32.72
2023-04-06T02:45:57.646Z,27.20
2023-04-06T02:48:24.084Z,29.15
2023-04-06T02:50:50.749Z,31.63
2023-04-06T02:53:17.162Z,28.75
2023-04-06T02:55:43.645Z,40.50
2023-04-06T02:58:10.238Z,33.78
2023-04-06T03:00:37.652Z,35.50
2023-04-06T03:03:04.197Z,32.67
2023-04-06T03:05:31.585Z,29.38
2023-04-06T03:07:57.975Z,27.15
2023-04-06T03:10:24.376Z,26.23
2023-04-06T03:12:51.069Z,27.65
2023-04-06T03:15:17.461Z,25.65
2023-04-06T03:17:43.987Z,32.30
2023-04-06T03:20:10.769Z,34.22
2023-04-06T03:22:37.160Z,32.92
2023-04-06T03:25:03.926Z,31.98
2023-04-06T03:27:30.476Z,34.97
2023-04-06T03:29:56.847Z,32.40
2023-04-06T03:32:23.293Z,46.65
2023-04-06T03:34:49.723Z,51.92
2023-04-06T03:37:16.281Z,71.18
2023-04-06T03:39:42.658Z,89.88
2023-04-06T03:42:09.608Z,93.47
2023-04-06T03:44:36.093Z,93.68
2023-04-06T03:47:03.236Z,60.35
2023-04-06T03:49:29.606Z,40.35
2023-04-06T03:51:57.079Z,30.73
2023-04-06T03:54:23.462Z,28.45
2023-04-06T03:56:50.258Z,22.20
2023-04-06T03:59:17.025Z,26.33
2023-04-06T04:01:43.597Z,28.58
2023-04-06T04:04:11.111Z,24.33
2023-04-06T04:06:37.512Z,24.70
2023-04-06T04:09:04.022Z,21.88
2023-04-06T04:11:30.429Z,23.90
2023-04-06T04:13:56.835Z,20.15
2023-04-06T04:16:23.315Z,24.83
2023-04-06T04:18:49.904Z,23.42
2023-04-06T04:21:16.413Z,24.33
2023-04-06T04:23:42.858Z,23.92
2023-04-06T04:26:09.469Z,24.92
2023-04-06T04:28:36.048Z,29.08
2023-04-06T04:31:02.504Z,24.05
2023-04-06T04:33:28.881Z,26.20
2023-04-06T04:35:55.422Z,24.52
2023-04-06T04:38:21.880Z,29.10
2023-04-06T04:40:48.330Z,29.60
2023-04-06T04:43:14.791Z,32.40
2023-04-06T04:45:41.236Z,28.10
2023-04-06T04:48:08.863Z,28.25
2023-04-06T04:50:35.388Z,35.00
2023-04-06T04:53:01.872Z,33.92
2023-04-06T04:55:28.654Z,37.50
2023-04-06T04:57:55.218Z,42.08
2023-04-06T05:00:21.881Z,42.97
2023-04-06T05:02:48.481Z,51.55
2023-04-06T05:05:15.028Z,78.82
2023-04-06T05:07:41.392Z,82.80
2023-04-06T05:10:08.210Z,77.20
2023-04-06T05:12:34.736Z,76.75
2023-04-06T05:15:01.113Z,82.30
2023-04-06T05:17:27.632Z,40.40
2023-04-06T05:19:54.099Z,39.38
2023-04-06T05:22:20.876Z,32.83
2023-04-06T05:24:47.315Z,33.03
2023-04-06T05:27:13.779Z,40.80
2023-04-06T05:29:40.366Z,33.75
2023-04-06T05:32:07.154Z,37.25
2023-04-06T05:34:33.566Z,33.58
2023-04-06T05:36:59.934Z,34.05
2023-04-06T05:39:26.579Z,33.90
2023-04-06T05:41:52.966Z,33.13
2023-04-06T05:44:19.409Z,38.55
2023-04-06T05:46:45.947Z,35.22
2023-04-06T05:49:13.380Z,36.10
2023-04-06T05:51:39.742Z,45.70
2023-04-06T05:54:06.142Z,36.35
2023-04-06T05:56:32.804Z,33.15
2023-04-06T05:58:59.223Z,46.35
2023-04-06T06:01:25.702Z,38.08
2023-04-06T06:03:52.114Z,32.88
2023-04-06T06:06:18.510Z,36.22
2023-04-06T06:08:44.911Z,33.25
2023-04-06T06:11:11.449Z,37.90
2023-04-06T06:13:37.814Z,38.17
2023-04-06T06:16:06.157Z,32.53
2023-04-06T06:18:33.217Z,40.30
2023-04-06T06:20:59.730Z,43.08
2023-04-06T06:23:26.192Z,37.90
2023-04-06T06:25:52.691Z,43.80
2023-04-06T06:28:19.103Z,51.00
2023-04-06T06:30:45.485Z,40.85
2023-04-06T06:33:11.881Z,41.22
2023-04-06T06:35:38.299Z,38.03
2023-04-06T06:38:04.717Z,39.53
2023-04-06T06:40:31.185Z,37.83
2023-04-06T06:42:57.575Z,38.33
2023-04-06T06:45:26.281Z,38.35
2023-04-06T06:47:54.907Z,36.33
2023-04-06T06:50:22.027Z,34.78
2023-04-06T06:52:48.481Z,34.60
2023-04-06T06:55:15.002Z,38.13
2023-04-06T06:57:43.259Z,35.47
2023-04-06T07:00:12.909Z,32.13
2023-04-06T07:02:40.029Z,37.15
2023-04-06T07:05:23.823Z,38.30
2023-04-06T07:07:54.129Z,38.72
2023-04-06T07:10:20.884Z,35.85
2023-04-06T07:12:47.486Z,29.30
2023-04-06T07:15:14.088Z,30.27
2023-04-06T07:17:42.385Z,31.17
2023-04-06T07:20:09.350Z,33.20
2023-04-06T07:22:35.797Z,26.95
2023-04-06T07:25:02.195Z,20.40
2023-04-06T07:27:28.548Z,15.05
2023-04-06T07:29:54.938Z,13.35
2023-04-06T07:32:21.412Z,15.55
2023-04-06T07:34:47.938Z,13.52
2023-04-06T07:37:14.322Z,16.30
2023-04-06T07:39:41.412Z,15.20
2023-04-06T07:42:08.066Z,13.40
2023-04-06T07:44:34.467Z,17.48
2023-04-06T07:47:01.256Z,14.07
2023-04-06T07:49:27.680Z,13.57
2023-04-06T07:51:54.697Z,17.98
2023-04-06T07:54:21.193Z,10.13
2023-04-06T07:56:47.602Z,13.70
2023-04-06T07:59:14.622Z,11.40
2023-04-06T08:01:41.096Z,11.82
2023-04-06T08:04:07.892Z,11.57
2023-04-06T08:06:35.187Z,9.65
2023-04-06T08:09:01.550Z,14.55
2023-04-06T08:11:28.314Z,12.07
2023-04-06T08:13:56.569Z,12.80
2023-04-06T08:16:23.430Z,12.20
2023-04-06T08:18:49.858Z,14.13
2023-04-06T08:21:16.323Z,14.25
2023-04-06T08:23:42.899Z,14.60
2023-04-06T08:26:09.618Z,14.98
2023-04-06T08:28:36.308Z,14.80
2023-04-06T08:31:06.634Z,13.43
2023-04-06T08:33:37.007Z,14.43
2023-04-06T08:36:11.142Z,12.50
2023-04-06T08:38:37.588Z,12.88
2023-04-06T08:41:11.845Z,11.10
2023-04-06T08:43:47.622Z,14.25
2023-04-06T08:46:14.199Z,14.77
2023-04-06T08:48:41.783Z,16.48
2023-04-06T08:51:09.094Z,16.38
2023-04-06T08:53:35.809Z,17.38
2023-04-06T08:56:02.445Z,15.95
2023-04-06T08:58:37.543Z,19.15
2023-04-06T09:01:09.285Z,13.18
2023-04-06T09:03:39.456Z,15.63
2023-04-06T09:06:07.106Z,15.98
2023-04-06T09:08:36.801Z,16.98
2023-04-06T09:11:04.133Z,19.73
2023-04-06T09:13:30.941Z,18.70
2023-04-06T09:16:05.070Z,15.35
2023-04-06T09:18:32.206Z,17.98
2023-04-06T09:21:04.369Z,18.60
2023-04-06T09:26:07.284Z,20.20
2023-04-06T09:28:54.152Z,17.15
2023-04-06T09:31:28.450Z,19.85
2023-04-06T09:33:55.617Z,18.65
2023-04-06T09:36:31.942Z,20.13
2023-04-06T09:39:00.472Z,17.45
2023-04-06T09:41:31.550Z,22.65
2023-04-06T09:44:08.762Z,22.63
2023-04-06T09:46:50.488Z,19.75
2023-04-06T09:49:22.848Z,22.83
2023-04-06T09:52:01.616Z,20.77
2023-04-06T09:54:30.402Z,21.65
2023-04-06T09:57:14.881Z,20.38
2023-04-06T10:00:10.644Z,19.20
2023-04-06T10:02:39.825Z,17.10
2023-04-06T10:05:10.629Z,17.63
2023-04-06T10:07:46.216Z,18.50
2023-04-06T10:10:23.409Z,19.05
2023-04-06T10:12:50.732Z,17.45
2023-04-06T10:15:18.839Z,17.17
2023-04-06T10:17:46.747Z,17.30
2023-04-06T10:20:28.892Z,16.85
2023-04-06T10:23:07.599Z,18.05
2023-04-06T10:25:34.386Z,17.55
2023-04-06T10:28:07.812Z,19.92
2023-04-06T10:30:35.653Z,17.88
2023-04-06T10:33:13.306Z,17.65
2023-04-06T10:35:40.017Z,17.42
2023-04-06T10:38:06.512Z,19.25
2023-04-06T10:40:33.172Z,16.35
2023-04-06T10:43:10.332Z,19.52
2023-04-06T10:45:36.929Z,19.92
2023-04-06T10:48:14.809Z,21.17
2023-04-06T10:50:41.723Z,23.90
2023-04-06T10:53:08.122Z,20.92
2023-04-06T10:55:35.535Z,21.50
2023-04-06T10:58:01.938Z,34.15
2023-04-06T11:00:36.263Z,22.20
2023-04-06T11:03:09.688Z,26.83
2023-04-06T11:05:36.406Z,22.95
2023-04-06T11:08:02.794Z,23.60
2023-04-06T11:10:30.859Z,22.13
2023-04-06T11:12:57.730Z,19.33
2023-04-06T11:15:24.234Z,21.77
2023-04-06T11:17:50.983Z,21.33
2023-04-06T11:20:18.412Z,19.20
2023-04-06T11:22:53.460Z,18.67
2023-04-06T11:25:20.240Z,16.25
2023-04-06T11:27:47.909Z,16.38
2023-04-06T11:30:15.458Z,18.52
2023-04-06T11:32:43.533Z,21.38
2023-04-06T11:35:21.738Z,20.67
2023-04-06T11:37:49.891Z,19.15
2023-04-06T11:40:16.801Z,19.25
2023-04-06T11:42:43.194Z,25.92
2023-04-06T11:45:10.070Z,21.65
2023-04-06T11:47:38.736Z,18.65
2023-04-06T11:50:09.785Z,20.25
2023-04-06T11:52:36.407Z,19.17
2023-04-06T11:55:13.918Z,19.92
2023-04-06T11:57:40.745Z,20.08
2023-04-06T12:00:09.317Z,19.60
2023-04-06T12:02:37.109Z,19.17
2023-04-06T12:05:04.402Z,21.23
2023-04-06T12:07:31.339Z,19.20
2023-04-06T12:09:57.809Z,21.02
2023-04-06T12:12:24.198Z,21.05
2023-04-06T12:14:50.855Z,22.00
2023-04-06T12:17:17.316Z,25.70
2023-04-06T12:19:43.702Z,20.30
2023-04-06T12:22:10.247Z,22.38
2023-04-06T12:24:36.631Z,21.95
2023-04-06T12:27:09.896Z,23.52
2023-04-06T12:29:36.819Z,22.75
2023-04-06T12:32:03.209Z,22.25
2023-04-06T12:34:29.722Z,19.83
2023-04-06T12:36:57.023Z,21.75
2023-04-06T12:39:23.656Z,22.98
2023-04-06T12:41:50.299Z,23.92
2023-04-06T12:44:16.682Z,22.05
2023-04-06T12:46:44.178Z,24.00
2023-04-06T12:49:12.895Z,23.45
2023-04-06T12:51:39.298Z,22.02
2023-04-06T12:54:06.824Z,26.08
2023-04-06T12:56:33.584Z,21.92
2023-04-06T12:59:00.018Z,25.23
2023-04-06T13:01:28.926Z,22.38
2023-04-06T13:03:56.392Z,23.13
2023-04-06T13:06:22.766Z,22.83
2023-04-06T13:08:51.037Z,23.52
2023-04-06T13:11:17.465Z,19.95
2023-04-06T13:13:43.842Z,24.65
2023-04-06T13:16:10.448Z,19.40
2023-04-06T13:18:39.340Z,19.00
2023-04-06T13:21:07.167Z,18.08
2023-04-06T13:23:33.916Z,17.25
2023-04-06T13:26:02.254Z,18.08
2023-04-06T13:28:28.759Z,20.52
2023-04-06T13:30:55.856Z,21.48
2023-04-06T13:33:22.688Z,18.38
2023-04-06T13:35:49.099Z,21.00
2023-04-06T13:38:16.027Z,18.77
2023-04-06T13:40:42.758Z,18.65
2023-04-06T13:43:09.233Z,17.30
2023-04-06T13:45:35.776Z,18.85
2023-04-06T13:48:02.254Z,19.75
2023-04-06T13:50:28.977Z,20.88
2023-04-06T13:52:55.521Z,18.73
2023-04-06T13:55:22.250Z,17.35
2023-04-06T13:57:48.625Z,20.77
2023-04-06T14:00:15.752Z,18.35
2023-04-06T14:02:42.705Z,19.88
2023-04-06T14:05:09.773Z,17.13
2023-04-06T14:07:36.206Z,18.35
2023-04-06T14:10:03.341Z,21.15
2023-04-06T14:12:29.903Z,19.50
2023-04-06T14:14:56.666Z,17.92
2023-04-06T14:17:23.058Z,18.85
2023-04-06T14:19:49.958Z,20.88
2023-04-06T14:22:16.359Z,26.23
2023-04-06T14:24:42.770Z,17.73
2023-04-06T14:27:09.284Z,14.65
2023-04-06T14:29:36.545Z,8.68
2023-04-06T14:32:03.583Z,8.98
2023-04-06T14:34:30.211Z,7.15
2023-04-06T14:36:56.664Z,6.25
2023-04-06T14:39:23.085Z,11.88
2023-04-06T14:41:50.971Z,6.75
2023-04-06T14:44:17.611Z,8.48
2023-04-06T14:46:44.244Z,10.40
2023-04-06T14:49:10.842Z,8.32
2023-04-06T14:51:37.289Z,8.60
2023-04-06T14:54:04.220Z,12.73
2023-04-06T14:56:32.048Z,10.98
2023-04-06T14:58:59.721Z,11.35
2023-04-06T15:01:26.192Z,14.25
2023-04-06T15:03:52.834Z,14.40
2023-04-06T15:06:21.640Z,15.18
2023-04-06T15:08:49.510Z,15.20
2023-04-06T15:11:16.067Z,18.48
2023-04-06T15:13:42.719Z,14.63
2023-04-06T15:16:09.419Z,17.73
2023-04-06T15:18:36.345Z,13.63
2023-04-06T15:21:03.158Z,14.30
2023-04-06T15:23:33.692Z,13.98
2023-04-06T15:26:00.300Z,14.13
2023-04-06T15:28:26.881Z,13.00
2023-04-06T15:30:54.878Z,14.95
2023-04-06T15:33:22.771Z,15.63
2023-04-06T15:35:49.220Z,12.15
2023-04-06T15:38:15.800Z,17.75
2023-04-06T15:40:47.271Z,15.57
2023-04-06T15:43:14.041Z,17.58
2023-04-06T15:45:41.606Z,16.98
2023-04-06T15:48:08.358Z,16.98
2023-04-06T15:50:35.425Z,14.60
2023-04-06T15:53:02.103Z,17.15
2023-04-06T15:55:28.535Z,14.57
2023-04-06T15:57:54.908Z,18.25
2023-04-06T16:00:21.864Z,15.15
2023-04-06T16:02:48.546Z,16.80
2023-04-06T16:05:15.138Z,16.83
2023-04-06T16:07:41.813Z,18.23
2023-04-06T16:10:08.868Z,17.60
2023-04-06T16:12:35.275Z,21.67
2023-04-06T16:15:01.758Z,16.10
2023-04-06T16:17:28.214Z,17.45
2023-04-06T16:19:54.983Z,15.18
2023-04-06T16:22:21.977Z,19.38
2023-04-06T16:24:48.363Z,15.48
2023-04-06T16:27:14.768Z,15.75
2023-04-06T16:29:41.666Z,12.18
2023-04-06T16:32:10.924Z,10.38
2023-04-06T16:34:37.623Z,11.63
2023-04-06T16:37:04.076Z,13.40
2023-04-06T16:39:30.580Z,11.60
2023-04-06T16:41:57.448Z,13.15
2023-04-06T16:44:23.977Z,12.75
2023-04-06T16:46:51.050Z,11.45
2023-04-06T16:49:19.357Z,12.30
2023-04-06T16:51:45.935Z,11.93
2023-04-06T16:54:12.383Z,13.63
2023-04-06T16:56:38.770Z,13.48
2023-04-06T16:59:08.023Z,11.10
2023-04-06T17:01:34.516Z,12.43
2023-04-06T17:04:01.790Z,12.05
2023-04-06T17:06:28.498Z,13.93
2023-04-06T17:08:54.952Z,9.65
2023-04-06T17:11:25.668Z,12.65
2023-04-06T17:13:55.340Z,13.15
2023-04-06T17:16:21.812Z,12.93
2023-04-06T17:18:48.228Z,11.23
2023-04-06T17:21:16.734Z,11.50
2023-04-06T17:23:43.777Z,10.40
2023-04-06T17:26:10.304Z,10.80
2023-04-06T17:28:36.703Z,11.93
2023-04-06T17:31:07.963Z,11.25
2023-04-06T17:33:35.215Z,14.13
2023-04-06T17:36:01.827Z,14.80
2023-04-06T17:38:28.309Z,13.10
2023-04-06T17:40:54.835Z,13.10
2023-04-06T17:43:21.330Z,12.80
2023-04-06T17:45:51.877Z,15.02
2023-04-06T17:48:18.320Z,14.05
2023-04-06T17:50:45.369Z,18.70
2023-04-06T17:53:12.076Z,17.08
2023-04-06T17:55:38.463Z,16.45
2023-04-06T17:58:05.297Z,15.32
2023-04-06T18:00:31.699Z,19.25
2023-04-06T18:02:58.128Z,17.70
2023-04-06T18:05:25.932Z,19.48
2023-04-06T18:07:55.473Z,15.50
2023-04-06T18:10:22.651Z,15.65
2023-04-06T18:12:49.166Z,19.75
2023-04-06T18:15:16.833Z,16.52
2023-04-06T18:17:44.626Z,17.88
2023-04-06T18:20:13.172Z,16.00
2023-04-06T18:22:40.529Z,17.35
2023-04-06T18:25:07.288Z,20.92
2023-04-06T18:27:33.821Z,16.08
2023-04-06T18:30:01.078Z,20.67
2023-04-06T18:32:30.587Z,19.05
2023-04-06T18:34:57.758Z,16.00
2023-04-06T18:37:25.381Z,15.02
2023-04-06T18:39:53.243Z,21.67
2023-04-06T18:42:19.630Z,19.60
2023-04-06T18:44:46.892Z,19.60
2023-04-06T18:47:13.413Z,20.45
2023-04-06T18:49:39.922Z,22.13
2023-04-06T18:52:06.371Z,21.95
2023-04-06T18:54:32.843Z,18.33
2023-04-06T18:56:59.238Z,19.27
2023-04-06T18:59:30.029Z,22.23
2023-04-06T19:01:56.600Z,17.73
2023-04-06T19:04:23.389Z,20.27
2023-04-06T19:06:49.954Z,20.08
2023-04-06T19:09:16.421Z,20.35
2023-04-06T19:11:42.784Z,15.95
2023-04-06T19:14:09.183Z,24.35
2023-04-06T19:16:40.857Z,21.08
2023-04-06T19:19:07.371Z,20.98
2023-04-06T19:21:33.750Z,20.30
2023-04-06T19:24:00.339Z,19.40
2023-04-06T19:26:32.312Z,17.08
2023-04-06T19:28:58.728Z,22.02
2023-04-06T19:31:26.894Z,18.63
2023-04-06T19:33:53.394Z,20.80
2023-04-06T19:36:19.851Z,18.88
2023-04-06T19:38:46.268Z,18.17
2023-04-06T19:41:12.915Z,21.85
2023-04-06T19:43:39.419Z,20.52
2023-04-06T19:46:05.980Z,20.80
2023-04-06T19:48:33.849Z,25.80
2023-04-06T19:51:00.331Z,20.55
2023-04-06T19:53:27.206Z,19.77
2023-04-06T19:55:53.706Z,18.90
2023-04-06T19:58:21.491Z,24.33
2023-04-06T20:00:47.892Z,22.25
2023-04-06T20:03:14.623Z,20.25
2023-04-06T20:05:41.474Z,20.45
2023-04-06T20:08:08.011Z,21.83
2023-04-06T20:10:34.847Z,19.23
2023-04-06T20:13:01.481Z,19.35
2023-04-06T20:15:28.075Z,16.63
2023-04-06T20:17:55.329Z,16.50
2023-04-06T20:20:21.814Z,18.90
2023-04-06T20:22:49.989Z,19.88
2023-04-06T20:25:17.601Z,17.20
2023-04-06T20:27:45.249Z,17.85
2023-04-06T20:30:14.145Z,16.00
2023-04-06T20:32:40.960Z,18.10
2023-04-06T20:35:07.664Z,18.17
2023-04-06T20:37:35.246Z,17.90
2023-04-06T20:40:01.694Z,16.50
2023-04-06T20:42:28.103Z,14.07
2023-04-06T20:44:56.844Z,16.35
2023-04-06T20:47:23.379Z,19.42
2023-04-06T20:49:50.073Z,17.05
2023-04-06T20:52:16.446Z,15.10
2023-04-06T20:54:42.831Z,14.38
2023-04-06T20:57:09.212Z,16.40
2023-04-06T20:59:35.770Z,18.48
2023-04-06T21:02:02.346Z,16.42
2023-04-06T21:04:28.948Z,15.68
2023-04-06T21:06:55.471Z,13.18
2023-04-06T21:09:21.897Z,12.63
2023-04-06T21:11:48.334Z,15.48
2023-04-06T21:14:14.742Z,12.48
2023-04-06T21:16:41.854Z,12.60
2023-04-06T21:19:08.312Z,16.75
2023-04-06T21:21:34.752Z,22.58
2023-04-06T21:24:01.716Z,18.30
2023-04-06T21:26:28.187Z,16.63
2023-04-06T21:28:54.704Z,23.83
2023-04-06T21:31:22.148Z,15.65
2023-04-06T21:33:48.916Z,15.27
2023-04-06T21:36:15.344Z,17.48
2023-04-06T21:38:41.763Z,14.32
2023-04-06T21:41:08.155Z,14.52
2023-04-06T21:43:35.557Z,12.43
2023-04-06T21:46:02.299Z,12.15
2023-04-06T21:48:28.764Z,12.07
2023-04-06T21:50:55.133Z,12.48
2023-04-06T21:53:21.548Z,13.13
2023-04-06T21:55:49.103Z,12.73
2023-04-06T21:58:15.711Z,9.27
2023-04-06T22:00:42.131Z,12.60
2023-04-06T22:03:08.620Z,10.25
2023-04-06T22:05:36.362Z,12.88
2023-04-06T22:08:03.188Z,12.88
2023-04-06T22:10:29.689Z,10.13
2023-04-06T22:12:56.205Z,10.52
2023-04-06T22:15:22.783Z,12.00
2023-04-06T22:17:49.231Z,10.35
2023-04-06T22:20:15.707Z,10.35
2023-04-06T22:22:42.155Z,13.40
2023-04-06T22:25:08.979Z,13.75
2023-04-06T22:27:35.558Z,12.65
2023-04-06T22:30:02.646Z,12.57
2023-04-06T22:32:29.163Z,10.82
2023-04-06T22:34:55.732Z,10.75
2023-04-06T22:37:22.116Z,9.20
2023-04-06T22:39:48.495Z,10.77
2023-04-06T22:42:14.895Z,10.20
2023-04-06T22:44:41.310Z,11.30
2023-04-06T22:47:07.864Z,11.10
2023-04-06T22:49:34.276Z,10.63
2023-04-06T22:52:00.749Z,11.95
2023-04-06T22:54:27.133Z,10.23
2023-04-06T22:56:53.764Z,10.70
2023-04-06T22:59:20.573Z,10.63
2023-04-06T23:01:47.031Z,9.50
2023-04-06T23:04:13.577Z,11.15
2023-04-06T23:06:39.975Z,10.75
2023-04-06T23:09:06.375Z,12.20
2023-04-06T23:11:32.763Z,13.55
2023-04-06T23:13:59.145Z,9.77
2023-04-06T23:16:25.597Z,10.38
2023-04-06T23:18:51.984Z,12.27
2023-04-06T23:21:18.415Z,13.38
2023-04-06T23:23:44.800Z,12.55
2023-04-06T23:26:11.828Z,11.15
2023-04-06T23:28:38.243Z,9.82
2023-04-06T23:31:04.700Z,9.93
2023-04-06T23:33:31.336Z,11.07
2023-04-06T23:35:57.755Z,11.43
2023-04-06T23:38:24.225Z,12.43
2023-04-06T23:40:50.868Z,14.93
2023-04-06T23:43:17.305Z,11.93
2023-04-06T23:45:43.696Z,10.30
2023-04-06T23:48:10.372Z,13.63
2023-04-06T23:50:37.259Z,15.32
2023-04-06T23:53:04.369Z,17.80
2023-04-06T23:55:31.198Z,12.32
2023-04-06T23:57:57.679Z,23.75
